createdAt,value
2023-03-01T00:01:06.855Z,90.76
2023-03-01T00:03:34.756Z,91.04
2023-03-01T00:06:02.403Z,91.06
2023-03-01T00:08:29.764Z,91.00
2023-03-01T00:11:11.356Z,90.19
2023-03-01T00:13:38.403Z,90.42
2023-03-01T00:16:06.833Z,90.49
2023-03-01T00:18:34.293Z,89.80
2023-03-01T00:21:01.464Z,90.95
2023-03-01T00:23:28.903Z,90.28
2023-03-01T00:25:56.058Z,90.08
2023-03-01T00:28:23.110Z,89.93
2023-03-01T00:30:50.155Z,88.93
2023-03-01T00:33:17.134Z,89.68
2023-03-01T00:35:44.082Z,88.16
2023-03-01T00:38:11.088Z,88.36
2023-03-01T00:40:38.213Z,89.98
2023-03-01T00:43:05.799Z,92.18
2023-03-01T00:45:34.119Z,91.63
2023-03-01T00:48:01.122Z,93.07
2023-03-01T00:50:28.094Z,92.09
2023-03-01T00:52:56.485Z,91.65
2023-03-01T00:55:24.766Z,91.76
2023-03-01T00:57:51.894Z,91.87
2023-03-01T01:00:20.328Z,91.89
2023-03-01T01:02:47.986Z,92.07
2023-03-01T01:05:15.911Z,91.22
2023-03-01T01:07:42.855Z,90.54
2023-03-01T01:10:14.075Z,91.39
2023-03-01T01:12:40.981Z,92.42
2023-03-01T01:15:08.400Z,92.67
2023-03-01T01:17:35.314Z,92.60
2023-03-01T01:20:02.474Z,93.06
2023-03-01T01:22:29.457Z,93.28
2023-03-01T01:24:56.425Z,93.68
2023-03-01T01:27:23.405Z,93.72
2023-03-01T01:29:50.344Z,93.50
2023-03-01T01:32:17.343Z,93.45
2023-03-01T01:34:44.314Z,93.67
2023-03-01T01:37:11.206Z,95.05
2023-03-01T01:39:38.118Z,95.87
2023-03-01T01:42:05.079Z,96.12
2023-03-01T01:44:32.073Z,95.10
2023-03-01T01:47:23.400Z,94.28
2023-03-01T01:49:55.122Z,94.87
2023-03-01T01:52:37.103Z,95.67
2023-03-01T01:55:12.480Z,95.06
2023-03-01T01:57:44.952Z,94.24
2023-03-01T02:00:20.003Z,94.38
2023-03-01T02:02:50.375Z,94.76
2023-03-01T02:05:26.206Z,95.05
2023-03-01T02:07:53.444Z,94.23
2023-03-01T02:10:32.860Z,94.47
2023-03-01T02:13:17.804Z,94.41
2023-03-01T02:15:59.622Z,93.85
2023-03-01T02:18:41.942Z,94.07
2023-03-01T02:21:56.900Z,92.74
2023-03-01T02:25:15.742Z,93.56
2023-03-01T02:27:56.296Z,94.45
2023-03-01T02:30:25.670Z,95.78
2023-03-01T02:33:03.948Z,97.51
2023-03-01T02:35:38.484Z,97.58
2023-03-01T02:38:10.140Z,96.38
2023-03-01T02:40:39.432Z,96.19
2023-03-01T02:43:10.206Z,95.96
2023-03-01T02:45:37.107Z,96.15
2023-03-01T02:48:04.189Z,96.65
2023-03-01T02:50:31.106Z,96.29
2023-03-01T02:53:19.395Z,96.14
2023-03-01T02:55:46.423Z,95.53
2023-03-01T02:58:13.684Z,95.51
2023-03-01T03:00:50.128Z,94.57
2023-03-01T03:03:19.275Z,94.71
2023-03-01T03:05:46.392Z,94.39
2023-03-01T03:08:13.754Z,96.11
2023-03-01T03:10:42.059Z,95.41
2023-03-01T03:13:13.393Z,95.75
2023-03-01T03:15:41.830Z,95.47
2023-03-01T03:18:11.878Z,94.92
2023-03-01T03:20:42.132Z,95.21
2023-03-01T03:23:09.519Z,95.22
2023-03-01T03:25:39.090Z,95.07
2023-03-01T03:28:10.895Z,95.63
2023-03-01T03:30:41.914Z,95.70
2023-03-01T03:33:13.007Z,94.20
2023-03-01T03:35:44.252Z,94.84
2023-03-01T03:38:19.210Z,94.25
2023-03-01T03:40:48.946Z,93.91
2023-03-01T03:43:21.325Z,93.75
2023-03-01T03:45:49.999Z,94.21
2023-03-01T03:48:18.358Z,94.97
2023-03-01T03:50:50.688Z,95.22
2023-03-01T03:53:17.679Z,96.59
2023-03-01T03:55:45.714Z,96.93
2023-03-01T03:58:12.687Z,97.39
2023-03-01T04:00:45.094Z,97.18
2023-03-01T04:03:13.842Z,96.86
2023-03-01T04:05:42.113Z,96.10
2023-03-01T04:08:10.669Z,95.49
2023-03-01T04:10:40.413Z,94.63
2023-03-01T04:13:10.427Z,94.76
2023-03-01T04:15:37.513Z,95.95
2023-03-01T04:18:04.732Z,96.06
2023-03-01T04:20:35.853Z,95.79
2023-03-01T04:23:14.543Z,95.39
2023-03-01T04:25:50.640Z,95.16
2023-03-01T04:28:18.011Z,94.50
2023-03-01T04:30:45.073Z,95.02
2023-03-01T04:33:12.919Z,94.87
2023-03-01T04:35:40.313Z,95.39
2023-03-01T04:38:08.254Z,95.24
2023-03-01T04:40:36.218Z,95.47
2023-03-01T04:43:04.426Z,95.32
2023-03-01T04:45:33.187Z,95.57
2023-03-01T04:48:00.435Z,95.16
2023-03-01T04:50:27.557Z,95.59
2023-03-01T04:52:54.904Z,95.13
2023-03-01T04:55:22.494Z,95.05
2023-03-01T04:57:49.745Z,94.90
2023-03-01T05:00:22.990Z,96.35
2023-03-01T05:03:01.955Z,96.09
2023-03-01T05:05:32.676Z,95.31
2023-03-01T05:08:02.332Z,94.78
2023-03-01T05:10:31.760Z,94.47
2023-03-01T05:12:59.847Z,94.10
2023-03-01T05:15:31.890Z,94.53
2023-03-01T05:18:00.920Z,94.67
2023-03-01T05:20:29.841Z,94.88
2023-03-01T05:23:06.477Z,93.74
2023-03-01T05:25:35.321Z,93.71
2023-03-01T05:28:05.553Z,92.04
2023-03-01T05:30:35.678Z,92.57
2023-03-01T05:33:03.107Z,91.51
2023-03-01T05:35:30.799Z,92.63
2023-03-01T05:37:57.789Z,94.88
2023-03-01T05:40:25.575Z,95.54
2023-03-01T05:42:57.425Z,93.97
2023-03-01T05:45:26.310Z,94.97
2023-03-01T05:47:54.072Z,95.11
2023-03-01T05:50:23.248Z,95.17
2023-03-01T05:53:00.756Z,94.77
2023-03-01T05:55:29.235Z,96.49
2023-03-01T05:57:56.863Z,94.20
2023-03-01T06:00:23.842Z,94.98
2023-03-01T06:02:51.224Z,94.26
2023-03-01T06:05:18.150Z,92.69
2023-03-01T06:07:45.326Z,93.59
2023-03-01T06:10:14.699Z,92.38
2023-03-01T06:12:43.505Z,92.04
2023-03-01T06:15:11.965Z,93.02
2023-03-01T06:17:41.798Z,92.02
2023-03-01T06:20:15.699Z,91.48
2023-03-01T06:22:43.382Z,90.76
2023-03-01T06:25:11.907Z,90.56
2023-03-01T06:27:38.792Z,91.95
2023-03-01T06:30:06.410Z,90.49
2023-03-01T06:32:33.368Z,90.65
2023-03-01T06:35:00.276Z,90.64
2023-03-01T06:37:27.440Z,90.84
2023-03-01T06:39:54.359Z,90.28
2023-03-01T06:42:21.363Z,89.08
2023-03-01T06:44:48.328Z,88.23
2023-03-01T06:47:15.291Z,88.56
2023-03-01T06:49:42.711Z,88.52
2023-03-01T06:52:09.642Z,86.74
2023-03-01T06:54:36.614Z,87.83
2023-03-01T06:57:03.753Z,87.56
2023-03-01T06:59:30.820Z,87.14
2023-03-01T07:01:57.733Z,87.25
2023-03-01T07:04:24.669Z,86.99
2023-03-01T07:06:56.350Z,85.20
2023-03-01T07:09:24.594Z,84.07
2023-03-01T07:11:51.999Z,84.41
2023-03-01T07:14:19.093Z,83.15
2023-03-01T07:16:46.064Z,83.84
2023-03-01T07:19:12.933Z,83.09
2023-03-01T07:21:39.954Z,84.95
2023-03-01T07:24:08.260Z,84.58
2023-03-01T07:26:35.211Z,85.35
2023-03-01T07:29:04.632Z,84.23
2023-03-01T07:31:32.024Z,83.09
2023-03-01T07:33:59.108Z,82.88
2023-03-01T07:36:26.349Z,82.88
2023-03-01T07:38:53.390Z,82.49
2023-03-01T07:41:20.392Z,80.68
2023-03-01T07:43:47.317Z,79.08
2023-03-01T07:46:14.456Z,78.43
2023-03-01T07:48:41.379Z,77.10
2023-03-01T07:51:09.247Z,77.97
2023-03-01T07:53:36.260Z,77.24
2023-03-01T07:56:04.676Z,74.84
2023-03-01T07:58:31.600Z,76.73
2023-03-01T08:01:05.215Z,74.03
2023-03-01T08:03:32.867Z,73.09
2023-03-01T08:06:05.236Z,73.83
2023-03-01T08:08:32.570Z,73.05
2023-03-01T08:11:01.361Z,73.39
2023-03-01T08:13:28.502Z,73.23
2023-03-01T08:15:55.455Z,74.43
2023-03-01T08:18:22.989Z,73.98
2023-03-01T08:20:49.886Z,72.01
2023-03-01T08:23:17.107Z,72.59
2023-03-01T08:25:44.156Z,71.85
2023-03-01T08:28:11.146Z,72.20
2023-03-01T08:30:38.084Z,71.78
2023-03-01T08:33:05.142Z,71.05
2023-03-01T08:35:32.060Z,70.92
2023-03-01T08:37:59.071Z,70.29
2023-03-01T08:40:26.025Z,70.24
2023-03-01T08:42:53.076Z,68.25
2023-03-01T08:45:19.961Z,67.14
2023-03-01T08:47:46.895Z,67.63
2023-03-01T08:50:13.868Z,66.04
2023-03-01T08:52:40.952Z,68.74
2023-03-01T08:55:08.633Z,64.97
2023-03-01T08:57:35.545Z,64.78
2023-03-01T09:00:02.475Z,63.67
2023-03-01T09:02:29.477Z,60.43
2023-03-01T09:04:56.395Z,62.33
2023-03-01T09:07:23.313Z,59.57
2023-03-01T09:09:50.279Z,61.44
2023-03-01T09:12:17.261Z,60.27
2023-03-01T09:14:44.152Z,59.32
2023-03-01T09:17:11.269Z,60.12
2023-03-01T09:19:38.331Z,59.92
2023-03-01T09:22:05.963Z,58.71
2023-03-01T09:24:32.892Z,58.50
2023-03-01T09:26:59.819Z,58.83
2023-03-01T09:29:27.244Z,56.95
2023-03-01T09:31:56.528Z,57.61
2023-03-01T09:34:24.600Z,57.93
2023-03-01T09:36:52.419Z,57.06
2023-03-01T09:39:19.642Z,59.33
2023-03-01T09:41:50.046Z,57.45
2023-03-01T09:44:40.469Z,56.96
2023-03-01T09:47:18.865Z,56.32
2023-03-01T09:49:57.709Z,57.42
2023-03-01T09:53:00.098Z,57.55
2023-03-01T09:55:32.691Z,56.37
2023-03-01T09:58:10.159Z,55.61
2023-03-01T10:00:43.401Z,55.43
2023-03-01T10:03:14.117Z,56.83
2023-03-01T10:05:50.188Z,54.77
2023-03-01T10:08:37.554Z,55.83
2023-03-01T10:11:19.652Z,54.94
2023-03-01T10:13:50.320Z,53.79
2023-03-01T10:16:23.123Z,54.15
2023-03-01T10:18:57.153Z,55.06
2023-03-01T10:21:24.555Z,55.28
2023-03-01T10:23:54.649Z,54.97
2023-03-01T10:26:41.337Z,55.78
2023-03-01T10:29:13.086Z,56.96
2023-03-01T10:31:44.150Z,54.67
2023-03-01T10:34:37.500Z,53.06
2023-03-01T10:37:16.529Z,55.61
2023-03-01T10:40:02.197Z,54.71
2023-03-01T10:42:44.628Z,52.72
2023-03-01T10:45:31.415Z,52.44
2023-03-01T10:48:17.072Z,53.63
2023-03-01T10:50:46.782Z,52.82
2023-03-01T10:53:30.801Z,54.28
2023-03-01T10:56:00.977Z,51.81
2023-03-01T10:58:30.236Z,53.13
2023-03-01T11:01:05.327Z,53.58
2023-03-01T11:03:39.980Z,52.76
2023-03-01T11:06:12.882Z,52.28
2023-03-01T11:08:44.135Z,51.94
2023-03-01T11:11:11.050Z,51.92
2023-03-01T11:13:47.899Z,50.29
2023-03-01T11:16:14.833Z,50.73
2023-03-01T11:18:48.095Z,50.49
2023-03-01T11:21:16.990Z,53.20
2023-03-01T11:23:47.844Z,51.58
2023-03-01T11:26:19.207Z,52.65
2023-03-01T11:28:53.214Z,51.32
2023-03-01T11:31:20.877Z,50.91
2023-03-01T11:34:09.041Z,52.01
2023-03-01T11:36:41.936Z,50.61
2023-03-01T11:39:45.075Z,50.15
2023-03-01T11:42:21.637Z,51.61
2023-03-01T11:44:55.349Z,48.64
2023-03-01T11:47:42.785Z,49.94
2023-03-01T11:50:27.993Z,49.94
2023-03-01T11:53:04.048Z,50.16
2023-03-01T11:55:53.159Z,51.00
2023-03-01T11:58:46.272Z,50.47
2023-03-01T12:01:42.567Z,49.70
2023-03-01T12:04:31.536Z,50.14
2023-03-01T12:07:02.136Z,52.73
2023-03-01T12:09:56.657Z,49.48
2023-03-01T12:12:39.946Z,48.09
2023-03-01T12:15:29.361Z,49.60
2023-03-01T12:18:09.798Z,49.03
2023-03-01T12:21:00.965Z,50.03
2023-03-01T12:23:53.476Z,46.45
2023-03-01T12:26:41.703Z,46.83
2023-03-01T12:29:34.975Z,46.88
2023-03-01T12:32:13.713Z,48.07
2023-03-01T12:34:55.703Z,47.93
2023-03-01T12:37:34.498Z,47.26
2023-03-01T12:40:17.768Z,49.01
2023-03-01T12:43:03.182Z,46.85
2023-03-01T12:45:45.246Z,46.54
2023-03-01T12:48:21.750Z,46.49
2023-03-01T12:51:00.923Z,48.64
2023-03-01T12:53:33.327Z,46.21
2023-03-01T12:56:06.793Z,46.02
2023-03-01T12:58:49.189Z,47.54
2023-03-01T13:01:44.810Z,44.97
2023-03-01T13:04:22.479Z,45.35
2023-03-01T13:07:04.382Z,44.88
2023-03-01T13:09:50.653Z,44.13
2023-03-01T13:13:03.338Z,43.70
2023-03-01T13:15:35.972Z,40.75
2023-03-01T13:18:26.599Z,40.11
2023-03-01T13:21:02.435Z,41.01
2023-03-01T13:23:34.186Z,41.24
2023-03-01T13:26:13.163Z,39.26
2023-03-01T13:28:47.880Z,37.90
2023-03-01T13:31:17.505Z,37.59
2023-03-01T13:33:50.655Z,39.48
2023-03-01T13:36:30.626Z,37.03
2023-03-01T13:39:01.277Z,37.31
2023-03-01T13:41:40.464Z,38.98
2023-03-01T13:44:28.148Z,40.29
2023-03-01T13:46:59.042Z,38.48
2023-03-01T13:49:45.454Z,39.72
2023-03-01T13:52:45.068Z,39.40
2023-03-01T13:55:22.168Z,39.37
2023-03-01T13:57:59.042Z,40.27
2023-03-01T14:00:30.343Z,41.34
2023-03-01T14:03:10.457Z,40.42
2023-03-01T14:05:38.409Z,40.67
2023-03-01T14:08:07.020Z,41.08
2023-03-01T14:11:00.233Z,38.97
2023-03-01T14:14:04.308Z,38.74
2023-03-01T14:16:55.739Z,41.21
2023-03-01T14:19:34.671Z,40.46
2023-03-01T14:22:20.700Z,40.25
2023-03-01T14:25:03.520Z,40.97
2023-03-01T14:27:43.351Z,39.81
2023-03-01T14:30:23.251Z,41.17
2023-03-01T14:33:00.353Z,40.47
2023-03-01T14:35:31.344Z,40.10
2023-03-01T14:37:59.079Z,41.05
2023-03-01T14:40:33.811Z,40.25
2023-03-01T14:43:03.464Z,40.51
2023-03-01T14:45:34.420Z,40.11
2023-03-01T14:48:04.570Z,38.54
2023-03-01T14:50:41.451Z,39.18
2023-03-01T14:53:17.639Z,37.90
2023-03-01T14:55:57.234Z,37.81
2023-03-01T14:58:26.349Z,39.20
2023-03-01T15:00:56.780Z,38.89
2023-03-01T15:03:38.285Z,36.55
2023-03-01T15:06:07.851Z,38.08
2023-03-01T15:08:36.779Z,39.14
2023-03-01T15:11:14.877Z,39.80
2023-03-01T15:13:42.348Z,39.17
2023-03-01T15:16:14.982Z,38.22
2023-03-01T15:18:48.130Z,38.00
2023-03-01T15:21:37.580Z,37.64
2023-03-01T15:24:12.949Z,38.22
2023-03-01T15:26:46.959Z,36.62
2023-03-01T15:29:19.720Z,36.82
2023-03-01T15:31:57.732Z,37.24
2023-03-01T15:34:30.336Z,38.47
2023-03-01T15:37:00.351Z,36.64
2023-03-01T15:39:38.732Z,37.30
2023-03-01T15:42:08.697Z,37.85
2023-03-01T15:44:43.615Z,36.36
2023-03-01T15:47:49.535Z,37.82
2023-03-01T15:50:23.619Z,37.69
2023-03-01T15:52:51.223Z,38.33
2023-03-01T15:55:24.242Z,39.53
2023-03-01T15:58:01.656Z,40.16
2023-03-01T16:00:30.166Z,40.75
2023-03-01T16:02:57.535Z,41.53
2023-03-01T16:05:27.446Z,40.74
2023-03-01T16:07:55.368Z,41.25
2023-03-01T16:10:23.415Z,41.38
2023-03-01T16:12:53.729Z,41.68
2023-03-01T16:15:31.158Z,42.19
2023-03-01T16:18:01.889Z,42.83
2023-03-01T16:20:33.470Z,44.08
2023-03-01T16:23:06.951Z,42.80
2023-03-01T16:25:34.991Z,44.78
2023-03-01T16:28:06.143Z,45.38
2023-03-01T16:30:33.902Z,46.72
2023-03-01T16:33:02.237Z,47.25
2023-03-01T16:35:30.385Z,47.81
2023-03-01T16:37:57.669Z,48.72
2023-03-01T16:40:27.984Z,47.38
2023-03-01T16:43:00.565Z,47.61
2023-03-01T16:45:30.116Z,46.45
2023-03-01T16:47:57.154Z,47.07
2023-03-01T16:50:24.335Z,48.17
2023-03-01T16:52:51.298Z,50.32
2023-03-01T16:55:18.681Z,48.69
2023-03-01T16:57:45.573Z,49.80
2023-03-01T17:00:15.134Z,53.18
2023-03-01T17:02:43.393Z,51.44
2023-03-01T17:05:13.307Z,50.83
2023-03-01T17:07:40.961Z,49.15
2023-03-01T17:10:11.387Z,50.50
2023-03-01T17:12:38.792Z,50.50
2023-03-01T17:15:07.991Z,49.49
2023-03-01T17:17:35.908Z,50.24
2023-03-01T17:20:04.926Z,51.32
2023-03-01T17:22:32.060Z,51.38
2023-03-01T17:24:59.007Z,52.52
2023-03-01T17:27:26.030Z,52.52
2023-03-01T17:29:52.943Z,53.67
2023-03-01T17:32:20.190Z,55.19
2023-03-01T17:34:47.224Z,58.80
2023-03-01T17:37:14.284Z,57.68
2023-03-01T17:39:41.247Z,59.38
2023-03-01T17:42:08.274Z,58.30
2023-03-01T17:44:35.251Z,57.22
2023-03-01T17:47:03.858Z,57.42
2023-03-01T17:49:31.441Z,56.84
2023-03-01T17:51:58.897Z,58.83
2023-03-01T17:54:26.124Z,58.63
2023-03-01T17:56:53.472Z,59.79
2023-03-01T17:59:20.439Z,60.21
2023-03-01T18:01:47.720Z,61.68
2023-03-01T18:04:14.735Z,63.20
2023-03-01T18:06:42.067Z,62.44
2023-03-01T18:09:09.174Z,64.78
2023-03-01T18:11:36.837Z,65.04
2023-03-01T18:14:04.838Z,63.33
2023-03-01T18:16:34.403Z,63.05
2023-03-01T18:19:02.432Z,64.44
2023-03-01T18:21:30.972Z,64.21
2023-03-01T18:24:02.288Z,63.94
2023-03-01T18:26:30.138Z,63.90
2023-03-01T18:28:58.539Z,67.02
2023-03-01T18:31:26.762Z,68.03
2023-03-01T18:33:55.894Z,69.95
2023-03-01T18:36:26.299Z,68.76
2023-03-01T18:38:56.466Z,69.51
2023-03-01T18:41:28.145Z,71.29
2023-03-01T18:43:57.284Z,71.56
2023-03-01T18:46:24.679Z,73.10
2023-03-01T18:48:53.858Z,71.68
2023-03-01T18:51:23.559Z,71.38
2023-03-01T18:53:50.733Z,71.63
2023-03-01T18:56:17.777Z,70.68
2023-03-01T18:58:45.034Z,71.02
2023-03-01T19:01:17.566Z,73.38
2023-03-01T19:03:44.748Z,72.41
2023-03-01T19:06:11.659Z,73.79
2023-03-01T19:08:41.249Z,74.74
2023-03-01T19:11:09.682Z,73.06
2023-03-01T19:13:38.759Z,73.08
2023-03-01T19:16:13.206Z,74.42
2023-03-01T19:18:42.602Z,73.86
2023-03-01T19:21:13.812Z,72.90
2023-03-01T19:23:40.700Z,73.50
2023-03-01T19:26:13.826Z,73.88
2023-03-01T19:28:42.739Z,74.02
2023-03-01T19:31:12.704Z,73.90
2023-03-01T19:33:43.065Z,73.49
2023-03-01T19:36:12.466Z,74.96
2023-03-01T19:38:41.420Z,74.20
2023-03-01T19:41:11.264Z,75.70
2023-03-01T19:43:38.418Z,74.60
2023-03-01T19:46:05.543Z,76.12
2023-03-01T19:48:32.496Z,75.41
2023-03-01T19:50:59.579Z,75.92
2023-03-01T19:53:26.849Z,75.02
2023-03-01T19:56:01.370Z,75.45
2023-03-01T19:58:29.920Z,76.77
2023-03-01T20:00:59.094Z,77.97
2023-03-01T20:03:27.068Z,79.26
2023-03-01T20:05:54.163Z,79.86
2023-03-01T20:08:21.121Z,80.67
2023-03-01T20:10:48.052Z,79.95
2023-03-01T20:13:15.176Z,81.05
2023-03-01T20:15:44.086Z,80.23
2023-03-01T20:18:14.229Z,79.64
2023-03-01T20:20:41.449Z,79.93
2023-03-01T20:23:08.403Z,80.57
2023-03-01T20:25:35.344Z,78.93
2023-03-01T20:28:02.279Z,79.96
2023-03-01T20:30:29.176Z,79.96
2023-03-01T20:32:56.088Z,78.92
2023-03-01T20:35:23.572Z,81.01
2023-03-01T20:37:53.850Z,81.43
2023-03-01T20:40:21.941Z,80.33
2023-03-01T20:42:48.927Z,80.27
2023-03-01T20:45:16.543Z,79.87
2023-03-01T20:47:43.867Z,80.69
2023-03-01T20:50:11.639Z,81.58
2023-03-01T20:52:47.105Z,82.07
2023-03-01T20:55:14.652Z,82.11
2023-03-01T20:57:42.244Z,81.52
2023-03-01T21:00:10.469Z,81.42
2023-03-01T21:02:38.959Z,82.18
2023-03-01T21:05:06.875Z,84.27
2023-03-01T21:07:33.829Z,86.07
2023-03-01T21:10:00.870Z,85.50
2023-03-01T21:12:27.779Z,85.76
2023-03-01T21:14:54.758Z,86.08
2023-03-01T21:17:21.669Z,86.55
2023-03-01T21:19:49.979Z,85.34
2023-03-01T21:22:17.652Z,86.09
2023-03-01T21:24:45.180Z,86.23
2023-03-01T21:27:12.310Z,86.31
2023-03-01T21:29:41.692Z,86.71
2023-03-01T21:32:10.172Z,86.44
2023-03-01T21:34:38.453Z,87.34
2023-03-01T21:37:06.521Z,87.01
2023-03-01T21:39:34.290Z,87.91
2023-03-01T21:42:03.284Z,87.43
2023-03-01T21:44:31.820Z,86.15
2023-03-01T21:46:59.487Z,85.97
2023-03-01T21:49:27.309Z,85.91
2023-03-01T21:51:54.347Z,85.12
2023-03-01T21:54:21.597Z,86.77
2023-03-01T21:56:49.116Z,87.32
2023-03-01T21:59:19.144Z,86.79
2023-03-01T22:01:47.511Z,86.95
2023-03-01T22:04:15.762Z,87.11
2023-03-01T22:06:45.954Z,86.67
2023-03-01T22:09:19.416Z,86.11
2023-03-01T22:11:51.905Z,87.00
2023-03-01T22:14:19.619Z,86.50
2023-03-01T22:16:48.027Z,87.65
2023-03-01T22:19:17.551Z,88.01
2023-03-01T22:21:49.388Z,87.97
2023-03-01T22:24:19.080Z,87.66
2023-03-01T22:26:50.339Z,88.34
2023-03-01T22:29:22.411Z,87.82
2023-03-01T22:31:49.871Z,88.05
2023-03-01T22:34:17.391Z,88.23
2023-03-01T22:36:45.278Z,88.68
2023-03-01T22:39:14.828Z,88.01
2023-03-01T22:41:45.679Z,87.67
2023-03-01T22:44:14.561Z,87.47
2023-03-01T22:46:41.878Z,88.01
2023-03-01T22:49:10.189Z,87.33
2023-03-01T22:51:40.042Z,86.88
2023-03-01T22:54:10.683Z,86.32
2023-03-01T22:56:38.715Z,85.65
2023-03-01T22:59:11.367Z,87.44
2023-03-01T23:01:41.345Z,90.36
2023-03-01T23:04:11.536Z,89.88
2023-03-01T23:06:50.875Z,89.19
2023-03-01T23:09:23.948Z,89.17
2023-03-01T23:11:51.622Z,88.69
2023-03-01T23:14:19.663Z,88.23
2023-03-01T23:16:46.839Z,89.04
2023-03-01T23:19:13.918Z,90.33
2023-03-01T23:21:46.446Z,90.94
2023-03-01T23:24:18.871Z,90.63
2023-03-01T23:26:46.061Z,91.03
2023-03-01T23:29:13.017Z,91.00
2023-03-01T23:31:40.250Z,91.61
2023-03-01T23:34:07.140Z,92.26
2023-03-01T23:36:35.354Z,91.60
2023-03-01T23:39:05.353Z,91.30
2023-03-01T23:41:34.039Z,90.97
2023-03-01T23:44:02.754Z,91.07
2023-03-01T23:46:32.992Z,91.53
2023-03-01T23:49:00.706Z,91.25
2023-03-01T23:51:28.166Z,90.87
2023-03-01T23:54:00.238Z,90.04
2023-03-01T23:56:36.256Z,89.63
2023-03-01T23:59:06.567Z,89.41
